Time;durP1;ratioP1;P1;durP2;ratioP2;P2;SDS_P1;SDS_P2;PMS_P1;PMS_P2;Temp;Humidity;BMP_temperature;BMP_pressure;BME280_temperature;BME280_humidity;BME280_pressure;Samples;Min_cycle;Max_cycle;Signal;HPM_P1;HPM_P2
2023/07/17 00:00:11;;;;;;;14.57;6.10;;;;;;;24.76;49.53;100625.75;126973;1086;104158;-80
2023/07/17 00:03:00;;;;;;;14.93;6.80;;;;;;;24.74;49.67;100616.86;126939;1085;101904;-79
2023/07/17 00:05:29;;;;;;;11.93;6.00;;;;;;;24.71;50.22;100622.29;127103;1086;102255;-78
2023/07/17 00:07:57;;;;;;;14.30;5.93;;;;;;;24.70;50.34;100612.46;127075;1086;104223;-80
2023/07/17 00:10:26;;;;;;;13.80;6.00;;;;;;;24.68;50.23;100613.40;126961;1086;101909;-80
2023/07/17 00:12:54;;;;;;;13.83;5.97;;;;;;;24.67;50.46;100619.70;126975;1086;101999;-80
2023/07/17 00:15:23;;;;;;;16.83;6.33;;;;;;;24.65;50.47;100617.05;126964;1085;104148;-79
2023/07/17 00:17:51;;;;;;;12.17;6.00;;;;;;;24.64;50.32;100614.40;126911;1086;104287;-79
2023/07/17 00:20:20;;;;;;;17.00;6.23;;;;;;;24.61;50.53;100618.02;126984;1086;102365;-80
2023/07/17 00:22:49;;;;;;;14.10;6.00;;;;;;;24.61;50.63;100612.66;127006;1086;104178;-79
2023/07/17 00:25:17;;;;;;;13.50;6.00;;;;;;;24.59;50.56;100614.49;127017;1086;104200;-79
2023/07/17 00:27:46;;;;;;;12.47;5.97;;;;;;;24.58;51.04;100615.39;126960;1085;104194;-80
2023/07/17 00:30:14;;;;;;;14.03;6.00;;;;;;;24.59;51.06;100611.81;127027;1086;104216;-79
2023/07/17 00:32:43;;;;;;;11.80;5.80;;;;;;;24.58;51.07;100610.03;126942;1086;102069;-79
2023/07/17 00:35:11;;;;;;;14.57;5.80;;;;;;;24.59;51.12;100617.17;126994;1086;104155;-80
2023/07/17 00:37:40;;;;;;;15.15;6.00;;;;;;;24.57;51.38;100611.84;127000;1086;102021;-79
2023/07/17 00:40:11;;;;;;;12.13;5.30;;;;;;;24.57;51.68;100609.16;126964;1086;104185;-80
2023/07/17 00:42:39;;;;;;;9.83;5.30;;;;;;;24.55;51.25;100602.88;126932;1086;101964;-79
2023/07/17 00:45:09;;;;;;;12.50;5.67;;;;;;;24.53;51.81;100599.36;127016;1086;104155;-79
2023/07/17 00:47:38;;;;;;;11.27;5.27;;;;;;;24.53;51.54;100606.53;126932;1086;102004;-78
2023/07/17 00:50:08;;;;;;;11.60;5.47;;;;;;;24.52;51.48;100605.63;127002;1086;102030;-80
2023/07/17 00:52:40;;;;;;;9.97;5.30;;;;;;;24.51;51.85;100609.25;126943;1086;101877;-79
2023/07/17 00:55:10;;;;;;;12.17;5.33;;;;;;;24.50;51.86;100606.59;126967;1086;101980;-79
2023/07/17 00:57:39;;;;;;;10.40;5.50;;;;;;;24.46;52.06;100600.39;127040;1085;102176;-80
2023/07/17 01:00:12;;;;;;;10.90;5.37;;;;;;;24.43;51.98;100610.30;126914;1086;102108;-80
2023/07/17 01:02:41;;;;;;;13.20;5.05;;;;;;;24.37;52.02;100606.84;127053;1086;101797;-80
2023/07/17 01:05:10;;;;;;;9.07;4.80;;;;;;;24.35;52.23;100600.59;126987;1086;102214;-79
2023/07/17 01:07:39;;;;;;;13.47;5.20;;;;;;;24.33;52.45;100614.97;127022;1086;104322;-80
2023/07/17 01:10:09;;;;;;;13.70;5.30;;;;;;;24.28;52.18;100604.34;126970;1085;104265;-80
2023/07/17 01:12:38;;;;;;;11.93;5.83;;;;;;;24.27;52.62;100615.96;126970;1086;104165;-80
2023/07/17 01:15:10;;;;;;;12.13;5.37;;;;;;;24.27;52.67;100601.69;127085;1086;104174;-80
2023/07/17 01:17:39;;;;;;;12.53;5.10;;;;;;;24.27;52.84;100609.73;126967;1085;104293;-79
2023/07/17 01:20:10;;;;;;;26.87;7.30;;;;;;;24.26;53.01;100600.78;127006;1086;101816;-79
2023/07/17 01:22:55;;;;;;;16.77;5.70;;;;;;;24.25;52.91;100608.85;127062;1086;104194;-80
2023/07/17 01:25:24;;;;;;;14.33;5.73;;;;;;;24.21;53.03;100594.63;126993;1086;104315;-79
2023/07/17 01:27:53;;;;;;;10.90;5.17;;;;;;;24.20;52.97;100592.89;126868;1086;104241;-80
2023/07/17 01:30:23;;;;;;;9.57;5.17;;;;;;;24.17;52.97;100590.27;127023;1087;101826;-80
2023/07/17 01:32:51;;;;;;;11.80;5.23;;;;;;;24.15;53.21;100589.39;126950;1086;101832;-79
2023/07/17 01:35:20;;;;;;;11.07;5.13;;;;;;;24.13;53.33;100592.09;126985;1086;104178;-79
2023/07/17 01:37:48;;;;;;;10.83;4.97;;;;;;;24.12;53.17;100590.35;126975;1086;104427;-78
2023/07/17 01:40:17;;;;;;;10.30;4.73;;;;;;;24.11;53.60;100590.38;127032;1086;101905;-80
2023/07/17 01:42:46;;;;;;;10.40;5.13;;;;;;;24.07;53.54;100588.66;126933;1086;104055;-80
2023/07/17 01:45:14;;;;;;;10.97;5.23;;;;;;;24.05;53.70;100588.69;127033;1086;101997;-78
2023/07/17 01:47:43;;;;;;;12.87;5.23;;;;;;;24.05;53.71;100594.05;127014;1086;104175;-79
2023/07/17 01:50:11;;;;;;;12.37;5.33;;;;;;;24.03;54.15;100594.07;126967;1086;101966;-78
2023/07/17 01:52:40;;;;;;;10.00;4.57;;;;;;;24.01;54.21;100593.23;127011;1086;102098;-79
2023/07/17 01:55:09;;;;;;;13.27;5.27;;;;;;;24.00;53.91;100594.13;126791;1086;104266;-79
2023/07/17 01:57:38;;;;;;;7.57;5.17;;;;;;;23.98;54.23;100601.33;126988;1086;104309;-79
2023/07/17 02:00:12;;;;;;;9.93;4.80;;;;;;;23.96;54.03;100599.57;126783;1086;104152;-79
2023/07/17 02:02:43;;;;;;;8.67;4.60;;;;;;;23.94;54.58;100596.92;126930;1086;104165;-80
2023/07/17 02:05:12;;;;;;;9.37;5.20;;;;;;;23.94;54.55;100598.72;126826;1086;104232;-79
2023/07/17 02:07:42;;;;;;;12.40;5.30;;;;;;;23.90;54.57;100600.55;127061;1086;102134;-79
2023/07/17 02:10:11;;;;;;;10.77;4.90;;;;;;;23.88;54.59;100601.52;126995;1086;101759;-79
2023/07/17 02:12:39;;;;;;;13.40;5.10;;;;;;;23.85;54.92;100597.08;127007;1086;104303;-79
2023/07/17 02:15:11;;;;;;;14.07;5.07;;;;;;;23.83;54.86;100605.11;126968;1086;102008;-79
2023/07/17 02:17:40;;;;;;;8.80;4.73;;;;;;;23.83;54.91;100606.92;126865;1086;103023;-79
2023/07/17 02:20:13;;;;;;;7.60;4.77;;;;;;;23.82;54.86;100607.81;127039;1085;104162;-79
2023/07/17 02:22:41;;;;;;;8.63;4.70;;;;;;;23.82;54.95;100607.81;127005;1086;101839;-79
2023/07/17 02:25:10;;;;;;;13.67;4.87;;;;;;;23.82;54.99;100614.05;126986;1086;104149;-79
2023/07/17 02:27:39;;;;;;;10.47;5.10;;;;;;;23.82;55.25;100607.81;127009;1086;104260;-79
2023/07/17 02:30:09;;;;;;;11.20;5.23;;;;;;;23.82;55.30;100613.17;126948;1086;104138;-80
2023/07/17 02:32:38;;;;;;;9.13;4.87;;;;;;;23.80;55.35;100615.88;126889;1086;101858;-80
2023/07/17 02:35:08;;;;;;;11.23;4.60;;;;;;;23.78;55.50;100611.45;126854;1085;102148;-80
2023/07/17 02:37:39;;;;;;;14.17;5.70;;;;;;;23.77;55.30;100607.89;127151;1086;102012;-79
2023/07/17 02:40:12;;;;;;;12.97;5.10;;;;;;;23.78;55.55;100603.41;127036;1086;104229;-80
2023/07/17 02:42:41;;;;;;;8.58;4.78;;;;;;;23.77;55.61;100607.02;127049;1086;104215;-80
2023/07/17 02:45:11;;;;;;;12.13;5.20;;;;;;;23.76;55.92;100606.12;126976;1085;111976;-79
2023/07/17 02:47:40;;;;;;;15.20;5.33;;;;;;;23.77;55.67;100609.70;126974;1086;101810;-81
2023/07/17 02:50:21;;;;;;;11.13;5.30;;;;;;;23.76;55.98;100605.24;126969;1086;102289;-80
2023/07/17 02:52:50;;;;;;;10.20;5.10;;;;;;;23.75;55.77;100611.50;127015;1086;104232;-81
2023/07/17 02:55:19;;;;;;;14.10;5.13;;;;;;;23.73;55.93;100613.33;126821;1086;104212;-81
2023/07/17 02:57:48;;;;;;;10.63;4.73;;;;;;;23.71;56.06;100613.36;127010;1086;104172;-81
2023/07/17 03:00:18;;;;;;;13.97;5.30;;;;;;;23.73;56.14;100610.66;127780;1086;102160;-81
2023/07/17 03:02:49;;;;;;;14.67;5.47;;;;;;;23.72;56.21;100612.46;128234;1086;102037;-81
2023/07/17 03:05:17;;;;;;;13.37;5.30;;;;;;;23.71;56.42;100613.36;127960;1086;101971;-80
2023/07/17 03:07:47;;;;;;;11.17;4.80;;;;;;;23.70;56.42;100619.65;128154;1086;104168;-81
2023/07/17 03:10:15;;;;;;;10.50;4.87;;;;;;;23.71;56.25;100615.16;128049;1086;102128;-79
2023/07/17 03:12:44;;;;;;;12.87;5.17;;;;;;;23.66;56.72;100623.27;127313;1086;104155;-80
2023/07/17 03:15:13;;;;;;;12.47;4.90;;;;;;;23.64;56.69;100622.42;127048;1086;101908;-80
2023/07/17 03:17:42;;;;;;;10.07;5.07;;;;;;;23.64;57.04;100623.30;126970;1086;101957;-81
2023/07/17 03:20:13;;;;;;;11.23;5.23;;;;;;;23.67;57.00;100619.70;126869;1086;104270;-79
2023/07/17 03:22:41;;;;;;;10.97;5.00;;;;;;;23.69;56.83;100621.42;126981;1086;104249;-79
2023/07/17 03:25:10;;;;;;;18.03;5.67;;;;;;;23.73;56.87;100624.05;126735;1086;101873;-79
2023/07/17 03:27:38;;;;;;;11.23;5.90;;;;;;;23.78;57.08;100630.20;126919;1086;104044;-79
2023/07/17 03:30:09;;;;;;;14.57;5.40;;;;;;;23.82;57.29;100631.93;126899;1086;101948;-78
2023/07/17 03:32:39;;;;;;;12.33;5.40;;;;;;;23.85;56.93;100623.87;126854;1086;101938;-79
2023/07/17 03:35:09;;;;;;;14.43;5.83;;;;;;;23.88;56.97;100630.98;126901;1086;104230;-79
2023/07/17 03:37:37;;;;;;;9.87;4.90;;;;;;;23.89;57.07;100625.60;126722;1086;101846;-79
2023/07/17 03:40:10;;;;;;;11.77;5.47;;;;;;;23.93;57.17;100632.66;126866;1086;101835;-78
2023/07/17 03:42:38;;;;;;;14.70;5.80;;;;;;;23.94;57.15;100639.80;126564;1086;104273;-77
2023/07/17 03:45:09;;;;;;;14.57;5.30;;;;;;;23.95;56.94;100636.22;126515;1086;104149;-78
2023/07/17 03:47:39;;;;;;;39.10;9.13;;;;;;;23.95;57.16;100644.25;126363;1086;104209;-78
2023/07/17 03:50:09;;;;;;;13.03;6.20;;;;;;;23.96;57.41;100651.36;126925;1086;104292;-81
2023/07/17 03:52:38;;;;;;;15.27;5.40;;;;;;;24.00;57.37;100645.05;126994;1086;104264;-81
2023/07/17 03:55:08;;;;;;;13.47;5.40;;;;;;;24.03;57.13;100647.67;126637;1086;104107;-81
2023/07/17 03:57:36;;;;;;;12.50;5.30;;;;;;;24.08;57.07;100633.32;127024;1086;102002;-81
2023/07/17 04:00:10;;;;;;;10.40;5.23;;;;;;;24.08;57.13;100636.87;127103;1086;104255;-80
2023/07/17 04:02:41;;;;;;;11.30;5.10;;;;;;;24.08;56.78;100634.19;127097;1086;102006;-82
2023/07/17 04:05:13;;;;;;;11.63;5.20;;;;;;;24.08;57.06;100626.16;127104;1086;102524;-81
2023/07/17 04:07:41;;;;;;;13.40;5.00;;;;;;;24.13;57.29;100628.75;126887;1086;104268;-82
2023/07/17 04:10:10;;;;;;;12.30;5.70;;;;;;;24.17;57.13;100636.70;126734;1086;101827;-81
2023/07/17 04:12:39;;;;;;;12.97;5.40;;;;;;;24.25;57.08;100639.25;126870;1086;102082;-81
2023/07/17 04:15:10;;;;;;;13.83;5.20;;;;;;;24.32;57.22;100642.69;126872;1086;104104;-81
2023/07/17 04:17:38;;;;;;;15.20;4.90;;;;;;;24.36;56.90;100639.05;127031;1086;104181;-81
2023/07/17 04:20:10;;;;;;;9.43;5.10;;;;;;;24.41;57.14;100643.39;126963;1086;102462;-81
2023/07/17 04:22:39;;;;;;;11.70;4.97;;;;;;;24.46;57.10;100642.42;127064;1086;104277;-81
2023/07/17 04:25:11;;;;;;;12.40;5.10;;;;;;;24.51;56.99;100644.12;126950;1086;104156;-80
2023/07/17 04:27:40;;;;;;;12.10;5.43;;;;;;;24.52;56.94;100636.94;126899;1086;102134;-81
2023/07/17 04:30:11;;;;;;;8.53;5.10;;;;;;;24.57;57.09;100643.13;127186;1086;104178;-83
2023/07/17 04:32:40;;;;;;;10.57;5.20;;;;;;;24.61;57.16;100636.80;126930;1087;104264;-82
2023/07/17 04:35:10;;;;;;;16.87;5.07;;;;;;;24.66;57.10;100634.89;127166;1086;101997;-84
2023/07/17 04:37:40;;;;;;;12.60;5.10;;;;;;;24.71;56.68;100640.16;127217;1086;110704;-84
2023/07/17 04:40:10;;;;;;;13.83;5.30;;;;;;;24.73;56.79;100635.67;127169;1086;102300;-81
2023/07/17 04:42:40;;;;;;;13.17;5.37;;;;;;;24.76;56.96;100639.16;127078;1086;104328;-83
2023/07/17 04:45:12;;;;;;;11.00;5.10;;;;;;;24.83;56.71;100639.04;127072;1086;102377;-83
2023/07/17 04:47:41;;;;;;;13.27;5.50;;;;;;;24.88;56.80;100642.50;126866;1086;104165;-80
2023/07/17 04:50:11;;;;;;;12.30;5.50;;;;;;;24.90;56.16;100646.02;127085;1086;102067;-83
2023/07/17 04:52:39;;;;;;;12.17;5.50;;;;;;;24.94;56.24;100640.55;127161;1086;104159;-79
2023/07/17 04:55:09;;;;;;;10.77;5.20;;;;;;;24.99;56.41;100636.91;127061;1086;102112;-79
2023/07/17 04:57:40;;;;;;;12.95;5.40;;;;;;;25.04;56.42;100641.27;127068;1085;104427;-78
2023/07/17 05:00:12;;;;;;;13.53;5.53;;;;;;;25.10;55.95;100638.45;127146;1086;102047;-80
2023/07/17 05:02:41;;;;;;;12.70;4.93;;;;;;;25.17;55.98;100651.73;127269;1086;102275;-83
2023/07/17 05:05:12;;;;;;;10.60;5.03;;;;;;;25.24;55.89;100647.97;127060;1086;102345;-83
2023/07/17 05:07:42;;;;;;;10.37;5.00;;;;;;;25.30;55.62;100648.73;127342;1086;102729;-80
2023/07/17 05:10:14;;;;;;;8.50;4.43;;;;;;;25.36;55.11;100647.73;127007;1086;103623;-85
2023/07/17 05:12:43;;;;;;;10.57;4.93;;;;;;;25.40;55.22;100654.80;127359;1086;102131;-82
2023/07/17 05:15:13;;;;;;;12.83;4.40;;;;;;;25.45;54.61;100658.26;127390;1087;102158;-82
2023/07/17 05:17:44;;;;;;;6.10;4.03;;;;;;;25.53;54.84;100654.52;127792;1086;101975;-83
2023/07/17 05:20:19;;;;;;;9.13;4.60;;;;;;;25.62;54.47;100659.67;127322;1086;104273;-82
2023/07/17 05:22:48;;;;;;;9.30;4.50;;;;;;;25.69;54.22;100655.89;127371;1086;102012;-79
2023/07/17 05:25:17;;;;;;;8.30;4.27;;;;;;;25.76;54.28;100654.84;126771;1086;104165;-83
2023/07/17 05:27:46;;;;;;;13.17;4.50;;;;;;;25.82;53.45;100656.47;127206;1086;104226;-79
2023/07/17 05:30:17;;;;;;;6.80;3.90;;;;;;;25.92;53.36;100659.83;127490;1086;102336;-83
2023/07/17 05:32:46;;;;;;;7.47;4.27;;;;;;;26.00;53.39;100661.41;127392;1086;102241;-84
2023/07/17 05:35:17;;;;;;;12.33;4.53;;;;;;;26.06;53.35;100663.07;127021;1086;104315;-83
2023/07/17 05:37:46;;;;;;;8.30;4.10;;;;;;;26.11;53.37;100653.07;126975;1086;102746;-83
2023/07/17 05:40:15;;;;;;;7.33;3.93;;;;;;;26.17;53.16;100650.22;126968;1086;104229;-84
2023/07/17 05:42:43;;;;;;;12.27;4.40;;;;;;;26.24;52.31;100652.75;127158;1086;104218;-80
2023/07/17 05:45:14;;;;;;;7.00;4.27;;;;;;;26.27;52.24;100648.19;127093;1086;104332;-84
2023/07/17 05:47:43;;;;;;;9.00;4.00;;;;;;;26.33;51.85;100655.19;126947;1086;104155;-85
2023/07/17 05:50:12;;;;;;;10.10;3.90;;;;;;;26.38;51.83;100650.55;126885;1086;102315;-80
2023/07/17 05:52:41;;;;;;;7.07;3.80;;;;;;;26.41;51.40;100647.78;127783;1085;104271;-79
2023/07/17 05:55:10;;;;;;;10.37;4.20;;;;;;;26.46;50.60;100653.94;127248;1086;104155;-79
2023/07/17 05:57:39;;;;;;;11.00;4.27;;;;;;;26.50;50.38;100650.22;126593;1086;102282;-79
2023/07/17 06:00:11;;;;;;;8.10;4.30;;;;;;;26.58;50.10;100658.08;126902;1086;104178;-83
2023/07/17 06:02:45;;;;;;;8.93;4.17;;;;;;;26.62;50.20;100657.07;127739;1085;101964;-81
2023/07/17 06:05:14;;;;;;;11.03;4.40;;;;;;;26.68;50.23;100650.68;126932;1086;104171;-79
2023/07/17 06:07:43;;;;;;;7.80;4.20;;;;;;;26.72;49.42;100650.55;126986;1086;104638;-82
2023/07/17 06:10:13;;;;;;;9.60;4.37;;;;;;;26.78;49.67;100645.91;127436;1086;103240;-82
2023/07/17 06:12:42;;;;;;;8.23;4.50;;;;;;;26.80;49.01;100642.25;127972;1085;102009;-86
2023/07/17 06:15:14;;;;;;;8.27;4.20;;;;;;;26.95;48.87;100645.41;127039;1086;104149;-81
2023/07/17 06:17:46;;;;;;;7.67;4.13;;;;;;;27.00;49.07;100649.70;127467;1086;104175;-88
2023/07/17 06:20:17;;;;;;;7.78;4.03;;;;;;;27.07;48.45;100650.42;127744;1086;102074;-80
2023/07/17 06:22:46;;;;;;;6.17;4.07;;;;;;;27.11;48.25;100645.81;127639;1086;101898;-79
2023/07/17 06:25:15;;;;;;;12.30;5.03;;;;;;;27.13;47.97;100650.23;126981;1086;101982;-86
2023/07/17 06:27:44;;;;;;;9.17;4.17;;;;;;;27.20;48.09;100645.53;127971;1086;102030;-81
2023/07/17 06:30:14;;;;;;;12.03;4.33;;;;;;;27.26;47.77;100639.95;127018;1086;104181;-80
2023/07/17 06:32:44;;;;;;;7.30;4.07;;;;;;;27.35;46.34;100644.22;127658;1086;104242;-80
2023/07/17 06:35:13;;;;;;;12.00;4.20;;;;;;;27.43;46.65;100634.94;127853;1085;101931;-80
2023/07/17 06:37:48;;;;;;;10.27;4.57;;;;;;;27.53;46.27;100640.03;127500;1086;104156;-80
2023/07/17 06:40:17;;;;;;;8.20;4.30;;;;;;;27.66;45.81;100636.02;128022;1086;101782;-80
2023/07/17 06:42:46;;;;;;;10.90;4.27;;;;;;;27.81;44.45;100631.91;127643;1086;101849;-84
2023/07/17 06:45:16;;;;;;;12.40;4.40;;;;;;;27.98;44.84;100625.97;127237;1086;102002;-80
2023/07/17 06:47:45;;;;;;;6.67;4.10;;;;;;;28.09;44.40;100622.90;127835;1085;101874;-79
2023/07/17 06:50:15;;;;;;;10.33;4.40;;;;;;;28.25;44.77;100629.52;126861;1085;104335;-80
2023/07/17 06:52:47;;;;;;;7.78;4.00;;;;;;;28.39;44.40;100631.73;128107;1085;102293;-84
2023/07/17 06:55:16;;;;;;;9.10;4.20;;;;;;;28.53;43.31;100628.49;128086;1085;101837;-87
2023/07/17 06:57:45;;;;;;;6.70;4.20;;;;;;;28.65;43.05;100624.50;128667;1085;101600;-81
2023/07/17 07:00:15;;;;;;;9.17;4.47;;;;;;;28.74;42.89;100624.16;126826;1086;102343;-80
2023/07/17 07:02:46;;;;;;;7.42;4.25;;;;;;;28.91;42.71;100628.05;127022;1086;101784;-82
2023/07/17 07:05:15;;;;;;;5.70;4.10;;;;;;;29.06;42.15;100624.72;126632;1086;104031;-77
2023/07/17 07:07:43;;;;;;;9.70;4.40;;;;;;;29.22;41.54;100634.02;126934;1086;104207;-80
2023/07/17 07:10:20;;;;;;;8.33;4.80;;;;;;;29.37;41.43;100628.94;127202;1086;104201;-82
2023/07/17 07:13:05;;;;;;;7.10;4.27;;;;;;;29.54;40.84;100628.25;126974;1086;104321;-80
2023/07/17 07:15:35;;;;;;;6.87;4.00;;;;;;;29.66;40.46;100630.44;128167;1086;104165;-77
2023/07/17 07:18:08;;;;;;;9.37;4.30;;;;;;;29.79;40.39;100625.39;126500;1086;101922;-79
2023/07/17 07:20:44;;;;;;;9.93;4.80;;;;;;;30.01;40.29;100625.41;126638;1086;104250;-81
2023/07/17 07:23:25;;;;;;;7.30;4.23;;;;;;;30.26;39.65;100627.91;126667;1086;101829;-79
2023/07/17 07:25:54;;;;;;;7.67;4.27;;;;;;;30.44;38.84;100625.34;127306;1086;104252;-78
2023/07/17 07:28:25;;;;;;;7.67;4.30;;;;;;;30.59;39.03;100619.23;126738;1086;104229;-77
2023/07/17 07:31:04;;;;;;;7.20;4.30;;;;;;;30.73;38.93;100618.59;126798;1085;104180;-75
2023/07/17 07:33:32;;;;;;;8.70;4.25;;;;;;;30.92;39.18;100617.73;127683;1085;104185;-78
2023/07/17 07:36:01;;;;;;;8.87;4.17;;;;;;;31.08;39.01;100624.20;126744;1086;104165;-77
2023/07/17 07:38:32;;;;;;;9.20;4.20;;;;;;;31.19;38.27;100621.84;126235;1086;104178;-80
2023/07/17 07:41:01;;;;;;;7.23;4.00;;;;;;;31.40;38.30;100620.86;126909;1089;102219;-80
2023/07/17 07:43:30;;;;;;;8.03;4.20;;;;;;;31.62;36.92;100624.31;127456;1085;102172;-83
2023/07/17 07:45:58;;;;;;;10.13;4.40;;;;;;;31.76;36.98;100623.61;127906;1085;101809;-80
2023/07/17 07:48:30;;;;;;;8.13;4.00;;;;;;;31.95;37.06;100622.67;126838;1086;102073;-80
2023/07/17 07:50:58;;;;;;;9.33;4.23;;;;;;;32.08;36.77;100611.10;126566;1086;104219;-79
2023/07/17 07:53:27;;;;;;;7.80;4.50;;;;;;;32.20;36.27;100608.72;126578;1086;102304;-84
2023/07/17 07:55:56;;;;;;;11.07;4.50;;;;;;;32.30;36.00;100609.10;127805;1085;101958;-79
2023/07/17 07:58:25;;;;;;;10.53;4.20;;;;;;;32.40;35.72;100600.38;126809;1086;104685;-78
2023/07/17 08:00:58;;;;;;;5.63;4.07;;;;;;;32.59;35.36;100599.37;126689;1086;104158;-77
2023/07/17 08:03:34;;;;;;;6.17;4.30;;;;;;;32.80;35.31;100602.77;126705;1086;103018;-80
2023/07/17 08:06:06;;;;;;;6.30;4.20;;;;;;;32.94;34.39;100593.84;128069;1085;104180;-80
2023/07/17 08:08:49;;;;;;;10.87;4.77;;;;;;;33.14;34.59;100598.14;126356;1086;101836;-76
2023/07/17 08:11:21;;;;;;;10.43;4.70;;;;;;;33.23;34.37;100594.06;126586;1086;104187;-80
2023/07/17 08:13:50;;;;;;;10.00;4.60;;;;;;;33.35;34.15;100592.45;126905;1086;102413;-80
2023/07/17 08:16:20;;;;;;;8.77;4.63;;;;;;;33.42;33.72;100591.14;126778;1086;104185;-81
2023/07/17 08:18:51;;;;;;;7.10;4.70;;;;;;;33.59;33.50;100585.58;127641;1085;104200;-85
2023/07/17 08:21:22;;;;;;;7.63;4.27;;;;;;;33.68;33.46;100578.72;127024;1086;101930;-83
2023/07/17 08:23:51;;;;;;;7.20;4.17;;;;;;;33.78;33.69;100585.38;128066;1085;101903;-84
2023/07/17 08:26:22;;;;;;;10.63;4.57;;;;;;;33.89;32.75;100582.00;128181;1085;102056;-82
2023/07/17 08:28:53;;;;;;;8.50;4.60;;;;;;;34.08;32.90;100576.34;127957;1085;104235;-80
2023/07/17 08:31:22;;;;;;;10.35;4.55;;;;;;;34.24;32.48;100586.31;126581;1086;104169;-80
2023/07/17 08:33:53;;;;;;;14.43;4.97;;;;;;;34.38;32.45;100581.73;127682;1085;101823;-77
2023/07/17 08:36:27;;;;;;;8.35;4.55;;;;;;;34.39;32.38;100585.32;127118;1084;104165;-80
2023/07/17 08:38:57;;;;;;;7.27;4.80;;;;;;;34.44;32.02;100572.31;126780;1086;104191;-78
2023/07/17 08:41:27;;;;;;;8.30;4.63;;;;;;;34.53;31.76;100570.83;127577;1085;101899;-80
2023/07/17 08:44:01;;;;;;;8.97;4.50;;;;;;;34.67;31.48;100579.02;127893;1085;104395;-78
2023/07/17 08:46:31;;;;;;;6.27;4.20;;;;;;;34.68;31.48;100574.44;127391;1086;104178;-76
2023/07/17 08:49:02;;;;;;;11.35;4.65;;;;;;;34.67;31.06;100579.02;127987;1085;101761;-76
2023/07/17 08:51:31;;;;;;;13.63;5.10;;;;;;;34.71;30.86;100575.09;126325;1086;101988;-78
2023/07/17 08:54:03;;;;;;;10.20;4.97;;;;;;;34.74;31.05;100579.48;126931;1086;104177;-76
2023/07/17 08:56:36;;;;;;;8.80;4.80;;;;;;;34.83;31.29;100588.93;126707;1086;102021;-74
2023/07/17 08:59:05;;;;;;;7.23;4.57;;;;;;;34.78;30.80;100583.78;127063;1086;104028;-74
2023/07/17 09:01:34;;;;;;;7.40;4.60;;;;;;;34.91;31.05;100581.16;127864;1085;104047;-80
2023/07/17 09:04:04;;;;;;;8.77;4.50;;;;;;;34.98;30.49;100581.62;126843;1086;102410;-75
2023/07/17 09:06:33;;;;;;;12.30;5.03;;;;;;;35.06;30.28;100582.87;126440;1086;104162;-76
2023/07/17 09:09:03;;;;;;;9.87;4.80;;;;;;;35.08;30.12;100570.01;126477;1086;104267;-77
2023/07/17 09:12:03;;;;;;;6.43;4.30;;;;;;;35.08;30.17;100570.01;126474;1085;104309;-77
2023/07/17 09:14:32;;;;;;;10.50;4.43;;;;;;;35.00;30.32;100580.55;126329;1086;104231;-75
2023/07/17 09:17:07;;;;;;;9.10;4.70;;;;;;;35.01;30.07;100574.10;126598;1086;104184;-78
2023/07/17 09:19:39;;;;;;;7.77;4.53;;;;;;;35.12;30.09;100576.13;126668;1086;104152;-77
2023/07/17 09:22:16;;;;;;;7.43;4.80;;;;;;;35.09;29.88;100571.77;128048;1085;104217;-79
2023/07/17 09:24:48;;;;;;;5.57;3.83;;;;;;;35.17;29.70;100567.64;126495;1086;104248;-79
2023/07/17 09:27:17;;;;;;;10.33;4.80;;;;;;;35.23;29.78;100572.69;126512;1086;104261;-79
2023/07/17 09:29:46;;;;;;;9.37;4.90;;;;;;;35.29;30.11;100572.31;126569;1086;104297;-77
2023/07/17 09:32:32;;;;;;;10.50;4.80;;;;;;;35.33;29.58;100562.95;126380;1086;102416;-78
2023/07/17 09:35:08;;;;;;;6.27;4.40;;;;;;;35.22;30.00;100562.77;126350;1086;104149;-79
2023/07/17 09:37:41;;;;;;;7.90;4.40;;;;;;;35.23;29.94;100561.77;126002;1086;102035;-77
2023/07/17 09:40:11;;;;;;;9.47;4.80;;;;;;;35.18;29.87;100559.36;127506;1086;104213;-78
2023/07/17 09:42:42;;;;;;;6.97;4.30;;;;;;;35.13;30.06;100563.39;126854;1086;102404;-79
2023/07/17 09:45:16;;;;;;;9.73;4.87;;;;;;;35.17;29.69;100564.91;128175;1085;102231;-80
2023/07/17 09:47:50;;;;;;;7.70;4.70;;;;;;;35.10;29.53;100556.28;127591;1086;101810;-86
2023/07/17 09:50:31;;;;;;;11.43;4.90;;;;;;;35.13;29.77;100557.94;128279;1085;101989;-82
2023/07/17 09:53:02;;;;;;;11.10;4.80;;;;;;;35.21;29.81;100545.52;127403;1086;101864;-84
2023/07/17 09:55:37;;;;;;;10.38;5.10;;;;;;;35.30;29.69;100551.35;127458;1086;101907;-80
2023/07/17 09:58:11;;;;;;;7.73;4.63;;;;;;;35.26;29.55;100550.70;127344;1086;104153;-80
2023/07/17 10:00:41;;;;;;;9.27;4.60;;;;;;;35.33;29.71;100553.88;126967;1086;101985;-80
2023/07/17 10:03:13;;;;;;;10.60;4.60;;;;;;;35.42;29.67;100547.80;126828;1086;102099;-85
2023/07/17 10:05:47;;;;;;;8.20;4.40;;;;;;;35.44;29.82;100538.54;126937;1086;101940;-85
2023/07/17 10:08:18;;;;;;;6.47;4.50;;;;;;;35.48;29.46;100541.92;126772;1086;104152;-78
2023/07/17 10:11:04;;;;;;;9.37;4.93;;;;;;;35.57;29.44;100537.70;126627;1086;101973;-83
2023/07/17 10:13:35;;;;;;;7.30;4.37;;;;;;;35.63;29.47;100540.01;127320;1086;104165;-80
2023/07/17 10:16:09;;;;;;;9.70;4.90;;;;;;;35.61;29.37;100544.71;127030;1086;101865;-82
2023/07/17 10:18:47;;;;;;;10.07;4.60;;;;;;;35.61;29.28;100540.11;127409;1086;104647;-82
2023/07/17 10:21:20;;;;;;;8.83;4.50;;;;;;;35.70;29.16;100533.16;128968;1085;101863;-83
2023/07/17 10:23:52;;;;;;;13.83;4.93;;;;;;;35.63;28.92;100531.82;127643;1086;104050;-89
2023/07/17 10:26:22;;;;;;;8.07;4.33;;;;;;;35.53;29.14;100533.42;127458;1086;104430;-86
2023/07/17 10:29:00;;;;;;;9.23;4.73;;;;;;;35.57;29.26;100534.97;128315;1085;101771;-85
2023/07/17 10:31:32;;;;;;;8.53;5.00;;;;;;;35.62;29.09;100532.80;128720;1085;101778;-86
2023/07/17 10:34:04;;;;;;;9.83;5.03;;;;;;;35.61;28.70;100520.15;127860;1085;101984;-84
2023/07/17 10:36:40;;;;;;;7.87;4.47;;;;;;;35.53;28.79;100517.95;128052;1085;101824;-84
2023/07/17 10:39:15;;;;;;;9.40;4.90;;;;;;;35.51;28.83;100510.84;127320;1086;104129;-86
2023/07/17 10:41:51;;;;;;;11.53;4.50;;;;;;;35.48;28.83;100517.38;127074;1086;104156;-83
2023/07/17 10:44:22;;;;;;;8.40;4.70;;;;;;;35.48;28.62;100519.23;128194;1085;102319;-83
2023/07/17 10:46:53;;;;;;;7.93;4.47;;;;;;;35.49;28.79;100515.53;127186;1086;102069;-82
2023/07/17 10:49:23;;;;;;;7.67;4.57;;;;;;;35.53;28.77;100506.14;127494;1086;104242;-81
2023/07/17 10:51:59;;;;;;;7.90;4.50;;;;;;;35.57;28.39;100499.50;127273;1086;101864;-79
2023/07/17 10:54:30;;;;;;;8.80;4.70;;;;;;;35.62;28.21;100495.48;126416;1086;104155;-78
2023/07/17 10:57:00;;;;;;;7.47;4.40;;;;;;;35.70;28.22;100497.68;127156;1086;101952;-81
2023/07/17 10:59:32;;;;;;;7.90;4.27;;;;;;;35.70;28.33;100497.68;127340;1086;104187;-79
2023/07/17 11:02:04;;;;;;;16.97;4.97;;;;;;;35.76;28.37;100491.83;127522;1086;104248;-83
2023/07/17 11:04:35;;;;;;;9.75;4.70;;;;;;;35.84;27.91;100482.20;127025;1086;104232;-86
2023/07/17 11:07:12;;;;;;;5.90;4.50;;;;;;;35.86;27.88;100478.39;126483;1086;102848;-78
2023/07/17 11:09:45;;;;;;;6.23;4.40;;;;;;;35.93;27.85;100482.41;126628;1086;101958;-80
2023/07/17 11:12:13;;;;;;;10.13;4.57;;;;;;;35.92;28.18;100477.95;127669;1085;104184;-80
2023/07/17 11:14:43;;;;;;;8.23;4.30;;;;;;;35.81;27.82;100483.31;127827;1086;102355;-82
2023/07/17 11:17:14;;;;;;;8.87;4.57;;;;;;;35.70;27.85;100478.58;127231;1086;101880;-85
2023/07/17 11:19:42;;;;;;;9.63;4.70;;;;;;;35.61;27.77;100480.08;129000;1085;101798;-85